Naples, Florida
Current Conditions -  °F | °C
As of 3:53 PM on Wednesday 26 Nov 2014 (Local Time) from KAPF Reporting Station
Broken Clouds Broken Clouds  
Wind Chill: 62°   Ceiling: 10000
Heat Index: 62°   Visibility: 10mi
Dew Point: 45°   Wind: 10mph
Humidity: 53%   Direction: 10°N
Pressure: 30.13"   Gusts: NA
Location:  26.14°N, 81.79°W
Report Text: KAPF 262053Z 01009KT 10SM BKN100 17/07 A3013 RMK AO2 SLP202 T01670072 53004
Loading
Personal Weather Stations






























Interactive Weather Map New forecast layout! Learn more

10-Day Weather Forecast

Advertisements
Track Severe Weather on mobile